Time;durP1;ratioP1;P1;durP2;ratioP2;P2;SDS_P1;SDS_P2;PMS_P1;PMS_P2;Temp;Humidity;BMP_temperature;BMP_pressure;BME280_temperature;BME280_humidity;BME280_pressure;Samples;Min_cycle;Max_cycle;Signal;HPM_P1;HPM_P2
2022/05/15 00:01:35;;;;;;;4.10;2.43;;;;;;;9.97;92.42;101604.22;5035502;28;20411;-71
2022/05/15 00:04:02;;;;;;;9.17;4.20;;;;;;;9.97;92.47;101611.53;5035306;28;20450;-70
2022/05/15 00:06:28;;;;;;;5.70;3.80;;;;;;;9.95;92.80;101608.28;5035463;28;20478;-70
2022/05/15 00:08:55;;;;;;;4.63;3.10;;;;;;;9.84;93.42;101612.88;5035229;28;20447;-70
2022/05/15 00:11:21;;;;;;;7.07;3.23;;;;;;;9.82;93.86;101609.63;5035213;28;20443;-70
2022/05/15 00:13:49;;;;;;;5.30;4.03;;;;;;;9.81;93.65;101611.53;5034784;28;21015;-70
2022/05/15 00:16:16;;;;;;;6.07;3.10;;;;;;;9.83;93.37;101608.56;5034939;28;20486;-70
2022/05/15 00:18:43;;;;;;;6.73;3.10;;;;;;;9.86;92.71;101610.69;5035029;28;20863;-70
2022/05/15 00:21:10;;;;;;;5.93;3.37;;;;;;;9.79;91.45;101616.41;5035062;28;20446;-70
2022/05/15 00:23:37;;;;;;;4.20;3.03;;;;;;;9.66;90.18;101608.81;5034913;28;20485;-70
2022/05/15 00:26:04;;;;;;;4.20;3.10;;;;;;;9.65;89.89;101604.50;5034574;28;20466;-70
2022/05/15 00:28:30;;;;;;;4.07;2.70;;;;;;;9.52;89.25;101613.13;5034551;28;20936;-69
2022/05/15 00:30:58;;;;;;;7.27;3.47;;;;;;;9.35;90.19;101605.25;5034734;28;20823;-69
2022/05/15 00:33:25;;;;;;;3.60;2.70;;;;;;;9.31;90.15;101606.88;5034629;28;21022;-70
2022/05/15 00:35:52;;;;;;;4.00;2.30;;;;;;;9.23;90.11;101608.19;5034625;28;20458;-70
2022/05/15 00:38:19;;;;;;;7.07;3.30;;;;;;;9.22;89.23;101609.28;5034664;28;20435;-70
2022/05/15 00:40:47;;;;;;;3.73;2.27;;;;;;;9.25;89.20;101606.06;5034628;28;20485;-70
2022/05/15 00:43:34;;;;;;;15.70;3.30;;;;;;;9.32;90.31;101605.78;5034604;28;20443;-70
2022/05/15 00:46:04;;;;;;;4.80;2.63;;;;;;;9.33;91.23;101608.22;5034581;28;20912;-70
2022/05/15 00:48:30;;;;;;;2.93;2.30;;;;;;;9.25;93.63;101605.22;5034584;28;20439;-69
2022/05/15 00:50:58;;;;;;;5.20;2.73;;;;;;;9.20;94.30;101614.13;5034502;28;20451;-70
2022/05/15 00:53:25;;;;;;;4.27;3.37;;;;;;;9.22;94.09;101611.97;5034338;28;20532;-70
2022/05/15 00:55:53;;;;;;;3.70;2.57;;;;;;;9.23;93.66;101613.59;5034268;28;20467;-70
2022/05/15 00:58:24;;;;;;;3.47;3.17;;;;;;;9.26;93.61;101621.19;5035306;28;20954;-71
2022/05/15 01:00:51;;;;;;;4.00;2.40;;;;;;;9.10;94.39;101609.50;5034204;28;20440;-71
2022/05/15 01:03:21;;;;;;;4.07;2.30;;;;;;;9.25;93.71;101613.31;5034229;28;20440;-71
2022/05/15 01:05:50;;;;;;;4.63;2.27;;;;;;;9.06;94.11;101615.72;5034073;28;20466;-70
2022/05/15 01:08:17;;;;;;;4.90;2.90;;;;;;;8.96;95.21;101610.28;5034150;28;20860;-71
2022/05/15 01:10:47;;;;;;;4.57;2.97;;;;;;;9.07;94.64;101609.22;5034040;28;20948;-70
2022/05/15 01:13:15;;;;;;;3.63;2.43;;;;;;;9.07;94.85;101620.03;5033818;28;20503;-71
2022/05/15 01:15:44;;;;;;;2.33;1.80;;;;;;;9.03;93.17;101619.78;5033792;28;20478;-69
2022/05/15 01:18:11;;;;;;;3.77;2.60;;;;;;;8.92;90.76;101615.38;5033985;28;20427;-70
2022/05/15 01:20:41;;;;;;;7.57;3.30;;;;;;;8.87;90.95;101619.97;5033580;28;20509;-70
2022/05/15 01:23:09;;;;;;;3.83;2.33;;;;;;;8.73;91.20;101619.66;5034656;28;20431;-71
2022/05/15 01:25:37;;;;;;;4.20;2.80;;;;;;;8.70;90.28;101626.38;5033946;28;20830;-70
2022/05/15 01:28:07;;;;;;;4.87;2.97;;;;;;;8.76;90.94;101622.59;5033468;28;20446;-70
2022/05/15 01:30:35;;;;;;;10.73;3.20;;;;;;;8.73;89.64;101630.44;5033658;28;20447;-70
2022/05/15 01:33:04;;;;;;;5.90;2.53;;;;;;;8.80;89.03;101620.19;5033323;28;21032;-69
2022/05/15 01:35:31;;;;;;;3.70;2.60;;;;;;;8.72;90.65;101618.84;5033241;28;20454;-70
2022/05/15 01:37:57;;;;;;;5.90;2.77;;;;;;;8.65;92.94;101620.94;5033523;28;20537;-70
2022/05/15 01:40:25;;;;;;;3.30;2.40;;;;;;;8.74;92.92;101611.28;5033255;28;20955;-71
2022/05/15 01:42:52;;;;;;;6.60;2.50;;;;;;;8.85;92.49;101620.22;5033448;28;20435;-70
2022/05/15 01:45:18;;;;;;;9.80;2.03;;;;;;;8.83;92.58;101617.78;5033568;28;20447;-71
2022/05/15 01:47:45;;;;;;;5.47;2.30;;;;;;;8.66;94.02;101617.16;5033398;28;20830;-70
2022/05/15 01:50:14;;;;;;;2.57;1.90;;;;;;;8.72;93.92;101605.31;5033604;28;20466;-70
2022/05/15 01:52:41;;;;;;;10.30;2.90;;;;;;;8.66;93.94;101619.06;5032937;28;20936;-70
2022/05/15 01:55:08;;;;;;;2.80;2.17;;;;;;;8.57;94.57;101622.25;5033066;28;20959;-71
2022/05/15 01:57:36;;;;;;;7.63;2.80;;;;;;;8.70;94.17;101620.97;5033251;28;20459;-71
2022/05/15 02:00:06;;;;;;;2.57;1.93;;;;;;;8.65;94.09;101620.13;5033312;28;20439;-69
2022/05/15 02:02:32;;;;;;;3.90;2.50;;;;;;;8.52;94.76;101624.94;5033319;28;20451;-68
2022/05/15 02:04:59;;;;;;;15.97;3.17;;;;;;;8.43;94.97;101629.19;5032988;28;20450;-72
2022/05/15 02:07:25;;;;;;;12.83;2.90;;;;;;;8.45;95.04;101627.03;5033375;28;20467;-75
2022/05/15 02:09:52;;;;;;;3.40;2.57;;;;;;;8.45;93.04;101629.72;5033282;28;20443;-74
2022/05/15 02:12:18;;;;;;;4.03;2.83;;;;;;;8.48;91.43;101628.41;5033246;28;20662;-74
2022/05/15 02:14:46;;;;;;;10.70;3.63;;;;;;;8.35;92.16;101625.06;5033079;28;20483;-74
2022/05/15 02:17:12;;;;;;;2.60;2.00;;;;;;;8.43;90.75;101631.91;5032934;28;20489;-74
2022/05/15 02:19:39;;;;;;;4.27;3.07;;;;;;;8.32;89.76;101630.16;5033151;28;20451;-74
2022/05/15 02:22:06;;;;;;;5.20;2.37;;;;;;;8.25;89.94;101622.28;5032837;28;20958;-74
2022/05/15 02:24:32;;;;;;;6.20;2.37;;;;;;;8.20;89.63;101632.25;5035430;28;20474;-74
2022/05/15 02:26:58;;;;;;;3.53;2.40;;;;;;;8.03;91.71;101621.59;5037094;28;20474;-74
2022/05/15 02:29:25;;;;;;;4.70;2.23;;;;;;;7.95;92.02;101628.28;5036848;28;20442;-74
2022/05/15 02:31:53;;;;;;;3.93;2.10;;;;;;;8.09;91.20;101631.34;5036733;28;20989;-74
2022/05/15 02:34:19;;;;;;;2.43;2.23;;;;;;;8.18;91.37;101623.59;5037113;28;20487;-74
2022/05/15 02:36:45;;;;;;;3.80;2.40;;;;;;;8.16;92.36;101620.34;5036920;28;20463;-74
2022/05/15 02:39:12;;;;;;;3.00;2.40;;;;;;;8.14;93.33;101630.56;5036920;28;20439;-75
2022/05/15 02:41:38;;;;;;;12.30;2.77;;;;;;;8.09;94.13;101625.94;5036893;28;20447;-74
2022/05/15 02:44:05;;;;;;;3.00;2.27;;;;;;;7.96;94.92;101629.09;5036830;28;20447;-75
2022/05/15 02:46:31;;;;;;;2.80;2.23;;;;;;;7.90;95.43;101633.63;5036719;28;20463;-75
2022/05/15 02:51:43;;;;;;;5.70;2.80;;;;;;;7.91;95.34;101629.03;5036545;28;20406;-76
2022/05/15 02:54:10;;;;;;;5.30;2.70;;;;;;;7.91;95.16;101629.03;5036560;28;20909;-75
2022/05/15 02:56:37;;;;;;;6.33;2.60;;;;;;;8.09;94.27;101624.06;5036575;28;20470;-75
2022/05/15 02:59:04;;;;;;;2.40;2.03;;;;;;;8.21;93.11;101633.88;5036567;28;20794;-75
2022/05/15 03:01:31;;;;;;;4.23;2.40;;;;;;;8.02;93.63;101634.28;5036491;28;20451;-75
2022/05/15 03:03:58;;;;;;;5.67;3.33;;;;;;;7.89;92.43;101631.19;5036440;28;20439;-75
2022/05/15 03:06:25;;;;;;;3.33;2.33;;;;;;;7.73;92.09;101630.25;5036086;28;20462;-75
2022/05/15 03:08:52;;;;;;;2.57;2.07;;;;;;;7.69;91.20;101634.53;5036391;28;20450;-75
2022/05/15 03:11:20;;;;;;;4.80;2.67;;;;;;;7.53;91.20;101633.56;5036368;28;20478;-75
2022/05/15 03:13:47;;;;;;;3.73;1.90;;;;;;;7.54;91.63;101637.88;5036242;28;20489;-74
2022/05/15 03:16:15;;;;;;;7.53;3.00;;;;;;;7.56;91.41;101649.22;5036096;28;20506;-74
2022/05/15 03:18:45;;;;;;;3.93;2.77;;;;;;;7.58;90.42;101641.72;5036217;28;20509;-74
2022/05/15 03:21:28;;;;;;;7.30;3.27;;;;;;;7.52;91.72;101640.81;5036234;28;20439;-74
2022/05/15 03:23:55;;;;;;;4.00;2.70;;;;;;;7.58;91.71;101644.41;5036193;28;20423;-74
2022/05/15 03:26:21;;;;;;;6.97;2.90;;;;;;;7.54;93.63;101644.09;5035754;28;20839;-74
2022/05/15 03:28:48;;;;;;;4.60;2.67;;;;;;;7.54;95.18;101646.78;5036034;28;20474;-74
2022/05/15 03:31:14;;;;;;;4.57;2.50;;;;;;;7.53;96.02;101644.34;5035987;28;20454;-75
2022/05/15 03:33:41;;;;;;;9.97;3.67;;;;;;;7.64;94.79;101648.78;5036093;28;20578;-74
2022/05/15 03:36:10;;;;;;;3.80;2.67;;;;;;;7.66;95.12;101648.50;5035301;28;20462;-74
2022/05/15 03:38:38;;;;;;;4.40;2.30;;;;;;;7.69;95.33;101648.81;5035854;28;20546;-75
2022/05/15 03:41:05;;;;;;;5.90;2.60;;;;;;;7.66;95.38;101648.50;5035812;28;20450;-75
2022/05/15 03:43:31;;;;;;;3.93;2.83;;;;;;;7.54;95.72;101643.28;5035713;28;20443;-75
2022/05/15 03:45:57;;;;;;;4.60;2.33;;;;;;;7.67;96.25;101652.84;5035634;28;20471;-75
2022/05/15 03:48:24;;;;;;;10.23;3.70;;;;;;;7.58;96.26;101647.91;5035669;28;20443;-74
2022/05/15 03:50:50;;;;;;;2.90;2.43;;;;;;;7.66;96.38;101659.28;5035557;28;20443;-74
2022/05/15 03:53:17;;;;;;;3.03;2.40;;;;;;;7.72;95.68;101658.28;5035738;28;20440;-74
2022/05/15 03:55:45;;;;;;;5.37;2.90;;;;;;;7.76;94.69;101654.00;5035633;28;20823;-74
2022/05/15 03:58:11;;;;;;;10.23;4.40;;;;;;;7.78;92.98;101663.47;5035314;28;20449;-75
2022/05/15 04:00:38;;;;;;;5.10;2.90;;;;;;;7.82;92.76;101663.75;5035398;28;20816;-75
2022/05/15 04:03:05;;;;;;;10.47;4.50;;;;;;;7.76;91.77;101665.63;5035274;28;20451;-74
2022/05/15 04:05:32;;;;;;;5.87;2.00;;;;;;;7.76;91.26;101671.00;5035044;28;20439;-74
2022/05/15 04:07:59;;;;;;;7.53;2.83;;;;;;;7.73;91.44;101670.69;5035296;28;20451;-75
2022/05/15 04:10:26;;;;;;;6.33;3.60;;;;;;;7.72;92.53;101669.06;5035325;28;20443;-75
2022/05/15 04:12:54;;;;;;;3.13;2.83;;;;;;;7.71;91.87;101679.06;5035268;28;20477;-73
2022/05/15 04:15:20;;;;;;;7.17;2.63;;;;;;;7.76;92.72;101676.41;5034870;28;20498;-72
2022/05/15 04:17:50;;;;;;;3.40;2.20;;;;;;;7.91;92.86;101683.00;5035228;28;20431;-72
2022/05/15 04:20:20;;;;;;;5.70;3.33;;;;;;;8.00;95.50;101689.56;5034870;28;20974;-72
2022/05/15 04:22:46;;;;;;;10.30;3.40;;;;;;;8.06;96.30;101681.25;5035029;28;20439;-72
2022/05/15 04:25:13;;;;;;;8.43;3.63;;;;;;;8.24;96.13;101687.34;5034935;28;20450;-74
2022/05/15 04:27:40;;;;;;;6.77;3.37;;;;;;;8.29;96.55;101688.19;5034607;28;20859;-73
2022/05/15 04:30:09;;;;;;;3.80;2.63;;;;;;;8.39;97.24;101692.88;5034917;28;20796;-73
2022/05/15 04:32:36;;;;;;;4.47;2.53;;;;;;;8.42;97.80;101699.66;5034559;28;20959;-72
2022/05/15 04:35:02;;;;;;;3.50;2.43;;;;;;;8.60;97.02;101704.63;5034760;28;20487;-72
2022/05/15 04:37:29;;;;;;;3.90;3.43;;;;;;;8.71;97.04;101708.22;5034660;28;20473;-73
2022/05/15 04:39:55;;;;;;;5.90;3.33;;;;;;;8.84;96.58;101697.75;5034392;28;21006;-73
2022/05/15 04:42:22;;;;;;;5.60;3.73;;;;;;;8.98;96.10;101708.09;5034624;28;20451;-73
2022/05/15 04:44:48;;;;;;;4.27;2.93;;;;;;;8.98;97.55;101710.78;5034553;28;20443;-73
2022/05/15 04:47:16;;;;;;;3.43;2.90;;;;;;;9.13;97.84;101705.47;5033245;28;21018;-73
2022/05/15 04:49:43;;;;;;;5.60;3.63;;;;;;;9.31;97.80;101717.72;5034444;28;20458;-72
2022/05/15 04:52:10;;;;;;;5.40;2.90;;;;;;;9.39;96.38;101711.00;5034528;28;20447;-72
2022/05/15 04:54:37;;;;;;;7.40;3.27;;;;;;;9.42;96.21;101713.16;5034157;28;21034;-73
2022/05/15 04:57:04;;;;;;;6.90;3.30;;;;;;;9.60;95.32;101720.78;5034280;28;20478;-72
2022/05/15 04:59:30;;;;;;;4.37;2.87;;;;;;;9.67;95.06;101713.22;5034036;28;20960;-68
2022/05/15 05:01:58;;;;;;;4.93;3.00;;;;;;;9.88;95.26;101727.63;5034284;28;20469;-70
2022/05/15 05:04:26;;;;;;;6.90;3.30;;;;;;;10.01;94.63;101721.69;5034199;28;20443;-72
2022/05/15 05:06:53;;;;;;;3.03;2.70;;;;;;;10.14;95.30;101725.78;5034014;28;20467;-70
2022/05/15 05:09:20;;;;;;;3.47;2.70;;;;;;;10.31;94.87;101730.94;5034169;28;20439;-70
2022/05/15 05:11:46;;;;;;;3.67;2.70;;;;;;;10.47;94.51;101726.34;5034061;28;20448;-71
2022/05/15 05:14:12;;;;;;;3.20;2.60;;;;;;;10.60;94.26;101733.91;5033933;28;20486;-70
2022/05/15 05:16:39;;;;;;;3.30;2.20;;;;;;;10.76;94.21;101732.81;5033545;28;20478;-70
2022/05/15 05:19:07;;;;;;;2.47;2.27;;;;;;;10.84;94.16;101729.50;5033635;28;20945;-70
2022/05/15 05:21:34;;;;;;;6.53;3.10;;;;;;;11.04;93.25;101738.69;5033870;28;20435;-70
2022/05/15 05:24:01;;;;;;;3.33;1.70;;;;;;;11.13;92.68;101741.66;5033877;28;20824;-70
2022/05/15 05:26:27;;;;;;;7.60;3.00;;;;;;;11.23;92.25;101745.13;5033861;28;20513;-70
2022/05/15 05:28:54;;;;;;;2.13;1.80;;;;;;;11.42;91.80;101741.81;5033737;28;20443;-71
2022/05/15 05:31:21;;;;;;;4.97;2.37;;;;;;;11.54;90.48;101747.72;5033984;28;20447;-70
2022/05/15 05:33:47;;;;;;;2.53;1.80;;;;;;;11.68;90.33;101756.06;5033572;28;20439;-70
2022/05/15 05:36:14;;;;;;;5.93;1.87;;;;;;;11.83;89.61;101762.28;5033632;28;20463;-70
2022/05/15 05:38:42;;;;;;;3.63;1.80;;;;;;;11.92;88.86;101758.97;5033350;28;20811;-69
2022/05/15 05:41:08;;;;;;;3.77;2.00;;;;;;;12.01;88.22;101757.28;5033302;28;20443;-70
2022/05/15 05:43:35;;;;;;;1.90;1.30;;;;;;;12.06;87.53;101770.81;5033530;28;20450;-72
2022/05/15 05:46:01;;;;;;;1.57;1.10;;;;;;;12.14;86.83;101772.94;5033439;28;20505;-69
2022/05/15 05:48:29;;;;;;;1.60;1.37;;;;;;;12.26;86.50;101770.69;5033206;28;20786;-71
2022/05/15 05:50:55;;;;;;;3.83;1.47;;;;;;;12.29;86.10;101772.81;5033689;28;20443;-74
2022/05/15 05:53:22;;;;;;;1.97;1.57;;;;;;;12.31;85.84;101773.38;5033468;28;20443;-76
2022/05/15 05:55:50;;;;;;;1.43;1.03;;;;;;;12.42;85.96;101778.72;5033309;28;20498;-76
2022/05/15 05:58:17;;;;;;;1.77;0.90;;;;;;;12.45;84.21;101778.16;5033251;28;20443;-75
2022/05/15 06:00:43;;;;;;;1.20;0.90;;;;;;;12.56;84.57;101779.69;5033408;28;20443;-75
2022/05/15 06:05:55;;;;;;;4.30;1.10;;;;;;;12.77;84.07;101786.56;5033443;28;20550;-76
2022/05/15 06:08:22;;;;;;;1.30;1.07;;;;;;;12.87;83.88;101780.22;5033286;28;20435;-76
2022/05/15 06:10:50;;;;;;;2.20;1.07;;;;;;;12.93;82.70;101779.09;5033280;28;20443;-76
2022/05/15 06:13:16;;;;;;;2.93;1.17;;;;;;;13.01;83.45;101781.16;5033230;28;20866;-75
2022/05/15 06:15:43;;;;;;;3.07;0.80;;;;;;;13.09;83.68;101788.69;5032838;28;20499;-76
2022/05/15 06:18:09;;;;;;;1.47;0.80;;;;;;;13.21;82.69;101784.78;5033268;28;20443;-76
2022/05/15 06:20:36;;;;;;;4.47;0.70;;;;;;;13.26;82.70;101776.56;5033255;28;20454;-75
2022/05/15 06:23:04;;;;;;;4.40;1.00;;;;;;;13.34;81.96;101782.19;5033190;28;20450;-75
2022/05/15 06:25:30;;;;;;;1.43;0.90;;;;;;;13.41;81.46;101781.03;5033524;28;20439;-75
2022/05/15 06:27:58;;;;;;;1.73;0.87;;;;;;;13.47;81.66;101788.03;5033364;28;20451;-76
2022/05/15 06:30:25;;;;;;;4.23;0.80;;;;;;;13.53;81.57;101784.16;5033097;28;20447;-75
2022/05/15 06:32:51;;;;;;;1.47;0.90;;;;;;;13.53;80.35;101797.75;5033140;28;20887;-73
2022/05/15 06:35:18;;;;;;;1.67;1.20;;;;;;;13.50;79.72;101782.84;5032853;28;20601;-72
2022/05/15 06:37:44;;;;;;;1.00;0.70;;;;;;;13.58;79.51;101787.59;5033021;28;20518;-73
2022/05/15 06:40:13;;;;;;;1.00;0.63;;;;;;;13.68;79.64;101778.53;5033016;28;20439;-74
2022/05/15 06:42:40;;;;;;;1.20;0.70;;;;;;;13.75;80.17;101784.41;5033153;28;20537;-73
2022/05/15 06:45:10;;;;;;;10.93;1.13;;;;;;;13.82;79.50;101779.41;5032937;28;20443;-73
2022/05/15 06:47:36;;;;;;;1.20;0.70;;;;;;;13.88;78.88;101780.16;5033119;28;20463;-72
2022/05/15 06:50:03;;;;;;;0.90;0.60;;;;;;;13.95;77.99;101783.31;5032965;28;20470;-72
2022/05/15 06:52:30;;;;;;;2.70;1.00;;;;;;;13.99;77.56;101789.81;5032894;28;20470;-72
2022/05/15 06:54:56;;;;;;;2.20;0.90;;;;;;;14.00;76.17;101782.44;5032961;28;20487;-73
2022/05/15 06:57:28;;;;;;;1.27;0.50;;;;;;;14.01;75.84;101789.50;5032809;28;20470;-72
2022/05/15 06:59:55;;;;;;;3.67;1.30;;;;;;;14.07;75.65;101788.31;5032842;28;20431;-72
2022/05/15 07:02:24;;;;;;;1.20;0.83;;;;;;;14.07;75.67;101789.13;5032722;28;20827;-71
2022/05/15 07:04:52;;;;;;;3.33;0.97;;;;;;;14.10;76.51;101785.81;5032764;28;20443;-72
2022/05/15 07:07:18;;;;;;;0.83;0.50;;;;;;;14.12;76.36;101786.34;5033928;28;20557;-73
2022/05/15 07:09:44;;;;;;;2.00;0.50;;;;;;;14.24;75.90;101777.69;5033445;28;20443;-73
2022/05/15 07:12:11;;;;;;;4.83;0.77;;;;;;;14.36;76.23;101783.53;5036422;28;20489;-73
2022/05/15 07:14:37;;;;;;;1.00;0.70;;;;;;;14.44;75.99;101786.69;5036221;28;20482;-73
2022/05/15 07:17:05;;;;;;;0.90;0.63;;;;;;;14.45;78.17;101791.84;5035829;28;21065;-73
2022/05/15 07:19:33;;;;;;;1.93;1.10;;;;;;;14.60;72.52;101796.25;5036208;28;20512;-73
2022/05/15 07:22:00;;;;;;;2.13;0.80;;;;;;;14.59;72.92;101781.81;5036199;28;20435;-73
2022/05/15 07:24:26;;;;;;;3.40;0.80;;;;;;;14.57;75.77;101788.69;5036145;28;20443;-73
2022/05/15 07:26:53;;;;;;;2.20;0.93;;;;;;;14.59;74.94;101792.72;5036022;28;20470;-74
2022/05/15 07:29:20;;;;;;;7.40;1.40;;;;;;;14.71;74.31;101786.78;5036103;28;20438;-73
2022/05/15 07:31:47;;;;;;;1.47;1.00;;;;;;;14.82;71.80;101790.16;5035985;28;20457;-73
2022/05/15 07:34:14;;;;;;;1.33;0.93;;;;;;;14.74;73.72;101794.38;5035810;28;20534;-74
2022/05/15 07:36:42;;;;;;;3.50;0.87;;;;;;;14.80;73.66;101793.19;5035769;28;20491;-74
2022/05/15 07:39:08;;;;;;;1.10;0.77;;;;;;;14.87;73.42;101798.22;5035676;28;20477;-74
2022/05/15 07:41:34;;;;;;;1.40;0.93;;;;;;;14.94;72.59;101795.13;5035857;28;20454;-74
2022/05/15 07:44:01;;;;;;;3.73;0.83;;;;;;;15.01;71.08;101787.38;5035809;28;20446;-74
2022/05/15 07:46:27;;;;;;;1.47;0.90;;;;;;;15.00;72.42;101792.00;5035714;28;20467;-74
2022/05/15 07:48:55;;;;;;;1.03;0.60;;;;;;;15.09;73.46;101792.09;5035766;28;20450;-74
2022/05/15 07:51:21;;;;;;;1.80;0.93;;;;;;;15.16;73.54;101791.72;5035471;28;20481;-74
2022/05/15 07:53:49;;;;;;;1.80;0.80;;;;;;;15.28;71.52;101800.22;5035556;28;20534;-75
2022/05/15 07:56:16;;;;;;;1.20;0.67;;;;;;;15.36;70.18;101789.41;5035480;28;20487;-76
2022/05/15 07:58:43;;;;;;;2.40;1.03;;;;;;;15.36;69.76;101788.56;5035448;28;20472;-76
2022/05/15 08:01:09;;;;;;;3.83;1.23;;;;;;;15.47;68.66;101794.66;5035245;28;20963;-75
2022/05/15 08:03:38;;;;;;;1.53;0.70;;;;;;;15.56;67.46;101792.84;5035302;28;20991;-75
2022/05/15 08:08:50;;;;;;;2.07;0.87;;;;;;;15.61;68.36;101784.53;5035171;28;20494;-75
2022/05/15 08:11:17;;;;;;;3.43;0.80;;;;;;;15.63;67.88;101787.78;5035441;28;20435;-76
2022/05/15 08:13:43;;;;;;;1.73;1.03;;;;;;;15.61;69.53;101779.06;5035276;28;20454;-75
2022/05/15 08:16:11;;;;;;;1.03;0.53;;;;;;;15.72;69.60;101791.44;5034831;28;20494;-76
2022/05/15 08:24:07;;;;;;;2.60;1.10;;;;;;;15.74;66.38;101789.19;5035544;28;20807;-75
2022/05/15 08:26:33;;;;;;;1.00;0.73;;;;;;;15.80;67.27;101787.94;5034932;28;20520;-76
2022/05/15 08:29:00;;;;;;;8.83;1.13;;;;;;;15.84;66.61;101790.88;5035240;28;20442;-78
2022/05/15 08:31:27;;;;;;;1.20;0.60;;;;;;;15.90;67.11;101792.41;5035147;28;20825;-78
2022/05/15 08:33:55;;;;;;;1.07;0.70;;;;;;;16.02;66.91;101786.38;5035989;28;20443;-77
2022/05/15 08:36:22;;;;;;;2.13;1.00;;;;;;;16.19;65.38;101783.00;5034658;28;20510;-74
2022/05/15 08:38:48;;;;;;;1.63;0.70;;;;;;;16.38;62.26;101786.38;5034814;28;20439;-72
2022/05/15 08:41:30;;;;;;;2.03;0.70;;;;;;;16.49;60.47;101782.25;5034673;28;20450;-73
2022/05/15 08:44:06;;;;;;;1.90;0.80;;;;;;;16.50;61.45;101783.06;5034731;28;20478;-73
2022/05/15 08:46:39;;;;;;;1.67;0.90;;;;;;;16.46;64.38;101773.88;5034561;28;20466;-74
2022/05/15 08:49:11;;;;;;;1.60;0.70;;;;;;;16.46;63.53;101787.53;5034647;28;20459;-73
2022/05/15 08:51:39;;;;;;;1.50;0.80;;;;;;;16.58;62.42;101785.88;5034630;28;20431;-74
2022/05/15 08:54:08;;;;;;;1.93;0.87;;;;;;;16.68;62.54;101782.06;5034465;28;20500;-73
2022/05/15 08:56:44;;;;;;;1.57;0.83;;;;;;;16.58;61.59;101785.06;5034306;28;20579;-73
2022/05/15 08:59:21;;;;;;;1.37;0.80;;;;;;;16.54;61.52;101798.53;5034374;28;20436;-73
2022/05/15 09:01:52;;;;;;;1.23;0.80;;;;;;;16.62;60.63;101786.84;5034370;28;20436;-73
2022/05/15 09:04:18;;;;;;;1.30;0.90;;;;;;;16.67;60.75;101780.44;5034359;28;20424;-73
2022/05/15 09:06:56;;;;;;;0.70;0.50;;;;;;;16.78;62.04;101783.78;5034005;28;20462;-73
2022/05/15 09:09:28;;;;;;;1.33;0.77;;;;;;;16.97;58.39;101783.53;5034152;28;20796;-74
2022/05/15 09:12:01;;;;;;;1.63;1.17;;;;;;;16.98;57.95;101785.16;5034065;28;20432;-74
2022/05/15 09:14:48;;;;;;;6.03;0.90;;;;;;;17.07;56.36;101778.59;5034218;28;20473;-73
2022/05/15 09:17:22;;;;;;;1.30;0.70;;;;;;;17.11;56.83;101786.97;5033646;28;20482;-73
2022/05/15 09:19:55;;;;;;;1.70;0.90;;;;;;;17.12;58.03;101788.59;5034020;28;20423;-74
2022/05/15 09:22:23;;;;;;;2.50;0.70;;;;;;;17.21;57.83;101780.41;5033641;28;20923;-74
2022/05/15 09:24:52;;;;;;;0.80;0.50;;;;;;;17.32;58.43;101779.81;5033889;28;20439;-74
2022/05/15 09:27:22;;;;;;;1.47;0.70;;;;;;;17.30;56.15;101776.56;5033984;28;20466;-74
2022/05/15 09:29:53;;;;;;;5.20;1.20;;;;;;;17.46;55.42;101782.44;5034162;28;20438;-73
2022/05/15 09:32:31;;;;;;;4.07;1.07;;;;;;;17.51;56.06;101771.34;5033074;28;20951;-73
2022/05/15 09:35:00;;;;;;;1.00;0.40;;;;;;;17.54;54.62;101769.91;5033365;28;20962;-73
2022/05/15 09:40:21;;;;;;;1.40;0.83;;;;;;;17.57;53.91;101774.72;5033588;28;20798;-74
2022/05/15 09:45:53;;;;;;;2.37;0.80;;;;;;;17.65;54.18;101762.97;5033317;28;20596;-73
2022/05/15 09:48:22;;;;;;;1.67;0.77;;;;;;;17.73;54.67;101761.38;5033648;28;20435;-73
2022/05/15 09:50:57;;;;;;;3.33;1.00;;;;;;;17.92;53.92;101758.34;5034310;28;20438;-73
2022/05/15 09:53:31;;;;;;;1.90;0.87;;;;;;;18.01;52.88;101757.22;5035055;28;20427;-73
2022/05/15 09:55:59;;;;;;;2.50;0.87;;;;;;;17.98;52.91;101768.84;5033677;28;20495;-73
2022/05/15 09:58:37;;;;;;;0.90;0.60;;;;;;;17.96;53.21;101764.81;5033302;28;20447;-73
2022/05/15 10:01:23;;;;;;;0.73;0.47;;;;;;;18.02;53.18;101766.28;5033413;28;20424;-73
2022/05/15 10:03:52;;;;;;;0.70;0.60;;;;;;;18.27;52.13;101768.19;5033332;28;20431;-74
2022/05/15 10:06:21;;;;;;;2.03;0.80;;;;;;;18.34;53.20;101754.00;5033181;28;20463;-74
2022/05/15 10:09:05;;;;;;;0.80;0.50;;;;;;;18.48;52.72;101759.28;5033113;28;20481;-74
2022/05/15 10:11:37;;;;;;;7.30;0.80;;;;;;;18.55;52.07;101760.41;5033327;28;20506;-74
2022/05/15 10:14:07;;;;;;;1.20;0.70;;;;;;;18.44;52.02;101756.41;5032941;28;20916;-74
2022/05/15 10:16:38;;;;;;;1.33;0.80;;;;;;;18.48;50.43;101753.81;5032796;28;20490;-74
2022/05/15 10:19:09;;;;;;;3.77;0.80;;;;;;;18.47;50.12;101749.47;5033148;28;20422;-74
2022/05/15 10:21:40;;;;;;;1.23;0.80;;;;;;;18.55;50.59;101751.34;5033308;28;20490;-73
2022/05/15 10:24:13;;;;;;;1.40;0.87;;;;;;;18.67;50.01;101738.56;5033135;28;20459;-73
2022/05/15 10:26:48;;;;;;;1.40;0.77;;;;;;;18.80;51.56;101742.28;5033091;28;20474;-73
2022/05/15 10:29:23;;;;;;;1.70;0.67;;;;;;;18.95;50.75;101738.19;5033142;28;20434;-74
2022/05/15 10:31:54;;;;;;;1.60;0.63;;;;;;;19.10;50.95;101732.16;5032764;28;20465;-75
2022/05/15 10:34:26;;;;;;;1.80;0.50;;;;;;;19.31;50.70;101729.47;5032820;28;20429;-73
2022/05/15 10:37:12;;;;;;;1.10;0.70;;;;;;;19.39;48.70;101727.81;5032880;28;20540;-73
2022/05/15 10:39:57;;;;;;;0.80;0.40;;;;;;;19.60;48.60;101722.31;5033492;28;20430;-75
2022/05/15 10:42:31;;;;;;;1.73;0.97;;;;;;;19.68;46.81;101720.66;5032946;28;20423;-75
2022/05/15 10:45:08;;;;;;;0.83;0.60;;;;;;;19.70;47.69;101719.22;5034208;28;20428;-75
2022/05/15 10:47:42;;;;;;;2.30;0.70;;;;;;;19.81;47.00;101723.16;5036768;28;20471;-75
2022/05/15 10:50:21;;;;;;;2.30;0.77;;;;;;;19.99;46.33;101720.25;5036890;28;20419;-74
2022/05/15 10:59:01;;;;;;;1.90;0.80;;;;;;;19.99;45.27;101714.75;5038020;28;20462;-73
2022/05/15 11:01:36;;;;;;;2.20;0.80;;;;;;;20.20;45.55;101715.53;5036275;28;20419;-74
2022/05/15 11:04:10;;;;;;;1.60;0.80;;;;;;;20.37;44.88;101715.34;5036197;28;20912;-73
2022/05/15 11:06:55;;;;;;;1.10;0.70;;;;;;;20.48;44.71;101713.00;5036411;28;20550;-73
2022/05/15 11:09:33;;;;;;;2.80;0.80;;;;;;;20.38;45.36;101716.97;5036102;28;20870;-73
2022/05/15 11:12:16;;;;;;;1.90;0.70;;;;;;;20.69;46.04;101710.19;5036356;28;21021;-74
2022/05/15 11:14:56;;;;;;;1.33;0.97;;;;;;;21.77;45.82;101717.91;5036360;28;20427;-75
2022/05/15 11:17:30;;;;;;;1.80;1.23;;;;;;;22.90;40.29;101715.88;5036350;28;20482;-74
2022/05/15 11:20:04;;;;;;;9.50;1.03;;;;;;;24.01;37.77;101719.16;5036256;28;20545;-74
2022/05/15 11:22:37;;;;;;;1.13;1.00;;;;;;;25.06;37.09;101723.44;5036228;28;20463;-74
2022/05/15 11:25:08;;;;;;;1.00;0.60;;;;;;;25.76;34.17;101724.00;5035806;28;20784;-74
2022/05/15 11:27:44;;;;;;;0.90;0.60;;;;;;;26.83;35.28;101728.78;5035969;28;20451;-72
2022/05/15 11:30:18;;;;;;;1.80;0.70;;;;;;;27.40;31.84;101734.78;5035930;28;20778;-72
2022/05/15 11:33:01;;;;;;;4.83;0.60;;;;;;;28.03;30.76;101729.13;5035524;28;20966;-74
2022/05/15 11:35:31;;;;;;;1.33;0.60;;;;;;;28.79;31.06;101728.06;5035686;28;20469;-73
2022/05/15 11:38:22;;;;;;;0.93;0.60;;;;;;;28.83;29.52;101720.50;5035529;28;20957;-73
2022/05/15 11:40:50;;;;;;;1.47;0.60;;;;;;;28.86;31.90;101712.13;5035901;28;20454;-74
2022/05/15 11:43:36;;;;;;;0.93;0.57;;;;;;;29.45;29.08;101722.03;5035452;28;20944;-74
2022/05/15 11:46:06;;;;;;;1.37;0.40;;;;;;;29.85;28.89;101717.91;5031378;28;20479;-72
2022/05/15 11:48:51;;;;;;;0.70;0.50;;;;;;;30.36;28.46;101717.22;5036042;28;20440;-75
2022/05/15 11:51:27;;;;;;;0.60;0.40;;;;;;;30.42;28.23;101716.81;5035636;28;20467;-74
2022/05/15 11:53:57;;;;;;;0.60;0.40;;;;;;;30.39;26.64;101721.22;5035285;28;20804;-75
2022/05/15 11:56:26;;;;;;;1.20;0.73;;;;;;;30.69;28.28;101705.81;5034991;28;20494;-73
2022/05/15 11:58:56;;;;;;;0.67;0.47;;;;;;;30.89;26.96;101707.63;5035412;28;20443;-70
2022/05/15 12:01:48;;;;;;;0.60;0.40;;;;;;;31.26;27.49;101703.28;5035422;28;20513;-73
2022/05/15 12:04:59;;;;;;;0.60;0.30;;;;;;;31.39;26.54;101707.16;5035095;28;20905;-74